Aviation Digital Data Service (ADDS)

Output produced by METARs form (0011 UTC 05 March 2015)
found at http://www.aviationweather.gov/adds/metars/
 
KBMI 042330Z 0500/0524 34012KT P6SM SCT120 BKN250 
     FM050400 34008KT P6SM SCT250 
     FM051300 32012KT P6SM SKC